Meteo Giornale » Osservazioni meteo Italia » Firenze-Peretola

ore: 12:50 - Osservazioni Meteo Firenze-Peretola
Lat. 43° 48' N Lon. 11° 12' E Alt. 40 metri s.l.m.

poco_nuvoloso Europe/Rome

27 °C

Poco Nuvoloso

Temp. 24 Ore

14 °C

28 °C

Nord

7.4 Km/h

Dew point 8 °C

Umidità 30 %

Visibilità  10 Km

Il sole sorge alle ore 05:37

Il sole tramonta alle ore 20:47

Data e Ora Cielo e Fenomeni T °C DP °C Um. % Pres. hPa Vis. km Vento km/h
Oggi h: 12:50 poco_nuvoloso Poco Nuvoloso 27 8 30 1017 10 N 7.4
Oggi h: 12:20 poco_nuvoloso Poco Nuvoloso 26 7 29 1018 10 N 7.4
Oggi h: 11:50 sereno Sereno 25 7 31 1018 10 N 5.5
Oggi h: 11:20 sereno Sereno 25 7 31 1018 10 N 5.5
Oggi h: 10:50 sereno Sereno 24 7 33 1018 10 N 5.5
Oggi h: 10:20 sereno Sereno 24 10 41 1018 10 N 5.5
Oggi h: 09:50 sereno Sereno 23 8 38 1019 10 N 3.7
Oggi h: 09:20 sereno Sereno 21 8 43 1019 10 N 3.7
Oggi h: 08:50 sereno Sereno 20 10 52 1019 10 N 3.7
Oggi h: 08:20 sereno Sereno 20 10 52 1018 10 N 3.7
Oggi h: 07:50 nuvoloso Nuvoloso 19 9 52 1018 10 N 0
Oggi h: 07:20 nuvoloso Nuvoloso 19 10 55 1018 10 N 0
Oggi h: 06:50 nuvoloso Nuvoloso 17 11 67 1018 10 N 0
Oggi h: 06:20 poco_nuvoloso Poco Nuvoloso 16 9 63 1018 10 N 1.8
Oggi h: 05:50 nuvoloso Nuvoloso 15 9 67 1018 10 N 1.8
Oggi h: 04:50 nuvoloso Nuvoloso 15 9 67 1018 10 N 1.8
Oggi h: 04:20 nuvoloso Nuvoloso 14 8 67 1018 9 N 0
Oggi h: 03:50 sereno Sereno 14 8 67 1018 10 N 0
Oggi h: 03:20 poco_nuvoloso Poco Nuvoloso 16 9 63 1018 10 O/SO 7.4
Oggi h: 02:50 sereno Sereno 16 8 58 1017 10 E/NE 7.4
Oggi h: 02:20 sereno Sereno 18 8 51 1018 10 E/SE 7.4
Oggi h: 01:50 sereno Sereno 17 8 55 1018 10 E 9.3
Oggi h: 01:20 sereno Sereno 17 8 55 1018 10 E 7.4
Oggi h: 00:50 sereno Sereno 18 8 51 1018 10 E/SE 11.1
Oggi h: 00:20 sereno Sereno 18 9 55 1018 10 E 7.4
Ieri h: 23:50 sereno Sereno 20 8 45 1017 10 E 7.4
Ieri h: 23:20 sereno Sereno 19 9 52 1017 10 E 13
Ieri h: 22:50 sereno Sereno 20 9 49 1017 10 E 16.7
Ieri h: 22:20 sereno Sereno 21 9 46 1016 10 E 16.7
Ieri h: 21:20 sereno Sereno 22 9 43 1015 10 E 16.7
Ieri h: 20:50 sereno Sereno 22 9 43 1015 10 E 9.3
Ieri h: 20:20 sereno Sereno 23 9 40 1014 10 NE 9.3
Ieri h: 19:50 sereno Sereno 25 10 38 1014 10 N/NE 13
Ieri h: 19:20 sereno Sereno 25 9 36 1014 10 NE 13
Ieri h: 18:50 poco_nuvoloso Poco Nuvoloso 26 8 31 1014 10 NE 13
Ieri h: 18:20 poco_nuvoloso Poco Nuvoloso 26 7 29 1014 10 NE 14.8
Ieri h: 17:50 poco_nuvoloso Poco Nuvoloso 27 8 30 1014 10 NE 14.8
Ieri h: 17:20 poco_nuvoloso Poco Nuvoloso 27 7 28 1015 10 NE 16.7
Ieri h: 16:50 nuvoloso Nuvoloso 27 9 32 1014 10 E 16.7
Ieri h: 16:20 nuvoloso Nuvoloso 27 9 32 1014 10 E/NE 18.5
Ieri h: 15:50 nuvoloso Nuvoloso 26 9 34 1015 10 E/NE 18.5
Ieri h: 15:20 nuvoloso Nuvoloso 28 10 32 1015 10 N/NE 13
Ieri h: 14:50 nuvoloso Nuvoloso 27 9 32 1015 10 NE 18.5
Ieri h: 14:20 nuvoloso Nuvoloso 28 10 32 1015 10 E/NE 13
Ieri h: 13:50 nuvoloso Nuvoloso 28 9 30 1016 10 NE 16.7